• Join FlightAware (Why Join?)
  • Login
  • US Flag 
03:51PM EDT


 

Airport Tracker/Info


-or-


 

Live Flight TrackerFlight Track Log ✈ DAL1781 ✈ 30-Apr-2013 ✈ KBOI - KSLC

Flight Track Log - Related Links

Times and Time Zones

All times are in EDT time to prevent confusion due to time zone crossing. See the DAL1781 flight status page for this flight to view local times or setup timezone preferences in your user account.

Time Position Orientation Groundspeed Altitude Reporting Facility
EDT Latitude Longitude Course Direction KTS MPH feet Rate Location/Type
05:30PM 43.4664 -116.1433 126° Southeast 287 330 10,600  Level Salt Lake Center
05:31PM 43.3393 -115.8548 120° Southeast  Level Estimated
05:31PM 43.4256 -116.0278 116° Southeast 329 379 12,900  Level Salt Lake Center
05:32PM 43.3232 -115.6963 98° East  Level FlightAware Approximate
05:32PM 43.3722 -115.8869 117° Southeast 403 464 15,600  Level Salt Lake Center
05:33PM 43.2462 -115.5762 121° Southeast  Level Estimated
05:33PM 43.3156 -115.7367 117° Southeast 421 484 18,600  Level Salt Lake Center
05:34PM 43.1692 -115.4564 120° Southeast  Level Estimated
05:34PM 43.2608 -115.5925 117° Southeast 443 510 21,000  Level Salt Lake Center
05:35PM 43.1936 -115.4183 118° Southeast 468 539 23,300 1,920 Climbing Salt Lake Center
05:36PM 43.1333 -115.2606 118° Southeast 488 562 25,000 1,620 Climbing Salt Lake Center
05:37PM 43.0700 -115.0983 118° Southeast 505 581 26,700 1,680 Climbing Salt Lake Center
05:38PM 42.9936 -114.9008 118° Southeast 525 604 28,500 1,740 Climbing Salt Lake Center
05:39PM 42.9278 -114.7325 118° Southeast 528 608 30,300 1,740 Climbing Salt Lake Center
05:40PM 42.8511 -114.5378 118° Southeast 536 617 32,100 1,260 Climbing Salt Lake Center
05:41PM 42.7806 -114.3611 119° Southeast 533 613 33,000 420 Climbing Salt Lake Center
05:42PM 42.7083 -114.1822 119° Southeast 539 620 33,000  Level Salt Lake Center
05:43PM 42.6353 -114.0039 119° Southeast 541 623 33,000  Level Salt Lake Center
05:44PM 42.5539 -113.8350 123° Southeast 536 617 33,000 -600 Level Salt Lake Center
05:46PM 42.4358 -113.6603 132° Southeast 526 605 31,800 -1,680 Descending Salt Lake Center
05:47PM 42.3275 -113.5275 138° Southeast 526 605 29,600 -1,380 Descending Salt Lake Center
05:48PM 42.2242 -113.3908 136° Southeast 522 601 29,000 -300 Descending Salt Lake Center
05:49PM 42.1208 -113.2547 136° Southeast 521 600 29,000 -420 Level Salt Lake Center
05:50PM 42.0186 -113.1197 136° Southeast 517 595 28,200 -1,080 Descending Salt Lake Center
05:51PM 41.9164 -112.9858 136° Southeast 515 593 26,900 -2,280 Descending Salt Lake Center
05:52PM 41.7961 -112.8300 136° Southeast 503 579 23,600 -2,940 Descending Salt Lake Center
05:53PM 41.7014 -112.7086 136° Southeast 479 551 20,900 -2,640 Descending Salt Lake Center
05:53PM 41.6475 -112.6275 132° Southeast 460 529 19,200 -2,580 Descending Salt Lake Center
05:54PM 41.6125 -112.5958 146° Southeast 446 513 18,300 -2,100 Descending Salt Lake Center
05:54PM 41.5878 -112.5500 126° Southeast 435 501 17,700 -2,640 Descending Salt Lake Center
05:55PM 41.5300 -112.4889 142° Southeast 415 478 15,600 -3,000 Descending Salt Lake Center
05:55PM 41.5025 -112.4528 135° Southeast 411 473 14,700 -1,800 Descending Salt Lake Center
05:56PM 41.4392 -112.4122 154° Southeast 383 441 13,800 -1,980 Descending Salt Lake Center
05:56PM 41.3908 -112.3733 149° Southeast 364 419 12,300 -1,800 Descending Salt Lake Center
05:57PM 41.3514 -112.3508 157° South 359 413 12,000 -300 Descending Salt Lake Center
05:57PM 41.3042 -112.3139 150° Southeast 352 405 12,000  Level Salt Lake Center
05:58PM 41.2672 -112.2911 155° Southeast 346 398 12,000  Level Salt Lake Center
05:58PM 41.2317 -112.2614 148° Southeast 349 402 12,000  Level Salt Lake Center
05:59PM 41.1658 -112.2158 152° Southeast 349 402 12,000  Level Salt Lake Center
05:59PM 41.1211 -112.1792 148° Southeast 350 403 12,000  Level Salt Lake Center
06:00PM 41.0828 -112.1522 152° Southeast 348 400 12,000 -720 Level Salt Lake Center
06:00PM 41.0314 -112.1386 169° South 339 390 11,300 -1,020 Descending Salt Lake Center
06:01PM 40.9917 -112.1292 170° South 339 390 11,000 -300 Descending Salt Lake Center
06:01PM 40.9367 -112.1167 170° South 347 399 11,000  Level Salt Lake Center
06:02PM 40.8978 -112.1092 172° South 345 397 11,000  Level Salt Lake Center
06:02PM 40.8639 -112.1072 178° South 308 354 11,000  Level Salt Lake Center
06:03PM 40.8206 -112.1000 173° South 276 318 11,000 -240 Level Salt Lake Center
06:03PM 40.7911 -112.0981 177° South 259 298 10,800 -1,320 Descending Salt Lake Center
06:04PM 40.7508 -112.0919 173° South 253 291 9,700 -1,620 Descending Salt Lake Center
06:04PM 40.7097 -112.0886 176° South 256 295 9,000 -720 Descending Salt Lake Center
06:05PM 40.6700 -112.0828 174° South 241 277 9,000  Level Salt Lake Center
06:05PM 40.6569 -112.0839 184° South 214 246 9,000 -420 Level Salt Lake Center
06:06PM 40.6214 -112.0553 149° Southeast 215 247 8,600 -840 Descending Salt Lake Center
06:07PM 40.6214 -112.0225 90° East 204 235 8,000 -1,380 Descending Salt Lake Center
06:07PM 40.6389 -111.9978 47° Northeast 192 221 7,200 -1,680 Descending Salt Lake Center
06:07PM 40.6569 -111.9961 North 179 206 6,500 -2,040 Descending Salt Lake Center